Saint-Hyacinthe, Canada
Current Conditions -  °F | °C
As of 11:00 AM on Friday 31 Oct 2014 (Local Time) from CYHU Reporting Station
Few Clouds Few Clouds  
Wind Chill:   Ceiling: Unl
Heat Index:   Visibility: 9mi
Dew Point: -4°   Wind: 7mph
Humidity: 49%   Direction: 10°N
Pressure: 30.09"   Gusts: NA
Location:  45.62°N, 72.95°W
Report Text: CYHU 311500Z AUTO 01006KT 9SM FEW240 06/M04 A3009 RMK SLP189
Loading
Personal Weather Stations






























Interactive Weather Map
Tropical Storm Tracking
New forecast layout! Learn more

10-Day Weather Forecast

Advertisements
Track Severe Weather on mobile